Time;durP1;ratioP1;P1;durP2;ratioP2;P2;SDS_P1;SDS_P2;PMS_P1;PMS_P2;Temp;Humidity;BMP_temperature;BMP_pressure;BME280_temperature;BME280_humidity;BME280_pressure;Samples;Min_cycle;Max_cycle;Signal;HPM_P1;HPM_P2
2022/02/01 00:01:33;;;;;;;0.30;0.03;;;9.70;25.40;;;;;;5028216;28;20423;-77
2022/02/01 00:04:04;;;;;;;0.20;0.00;;;9.60;25.50;;;;;;5033886;28;20438;-75
2022/02/01 00:06:52;;;;;;;0.10;0.00;;;9.60;25.60;;;;;;5013058;28;20460;-80
2022/02/01 00:12:19;;;;;;;0.63;0.10;;;9.50;25.70;;;;;;5041867;28;20418;-75
2022/02/01 00:20:13;;;;;;;3.30;0.10;;;9.50;25.80;;;;;;5019998;28;20810;-77
2022/02/01 00:36:39;;;;;;;5.97;0.25;;;9.60;25.90;;;;;;4998903;28;20424;-76
2022/02/01 00:39:10;;;;;;;0.38;0.00;;;9.60;25.70;;;;;;5020533;28;20466;-77
2022/02/01 00:41:42;;;;;;;1.90;0.00;;;9.60;25.90;;;;;;5020798;28;20412;-76
2022/02/01 00:44:11;;;;;;;1.90;0.10;;;9.60;26.10;;;;;;5019727;28;20422;-80
2022/02/01 00:46:38;;;;;;;7.45;0.30;;;9.60;26.00;;;;;;5041099;28;20415;-77
2022/02/01 00:49:05;;;;;;;6.47;0.28;;;9.60;26.00;;;;;;5042663;28;20449;-77
2022/02/01 00:51:32;;;;;;;4.63;0.70;;;9.60;25.80;;;;;;5050220;28;20814;-78
2022/02/01 00:53:59;;;;;;;0.70;0.10;;;9.60;26.10;;;;;;5046226;28;20412;-79
2022/02/01 00:56:26;;;;;;;11.65;0.50;;;9.50;25.90;;;;;;5038739;28;20468;-79
2022/02/01 00:58:53;;;;;;;1.20;0.00;;;9.60;26.00;;;;;;5029719;28;20812;-77
2022/02/01 01:01:20;;;;;;;0.20;0.00;;;9.60;26.00;;;;;;5033438;28;20416;-79
2022/02/01 01:03:47;;;;;;;1.70;0.00;;;9.60;26.80;;;;;;5032427;28;20970;-77
2022/02/01 01:06:15;;;;;;;1.70;0.03;;;9.60;26.10;;;;;;5018776;28;20892;-77
2022/02/01 01:08:43;;;;;;;1.65;0.00;;;9.50;26.20;;;;;;5043986;28;20387;-77
2022/02/01 01:11:11;;;;;;;0.10;0.00;;;9.50;26.30;;;;;;5046279;28;20413;-77
2022/02/01 01:14:07;;;;;;;0.10;0.10;;;9.50;26.30;;;;;;5018660;28;20433;-76
2022/02/01 01:17:00;;;;;;;0.20;0.00;;;9.50;26.10;;;;;;5058591;28;20916;-75
2022/02/01 01:43:58;;;;;;;1.83;0.20;;;9.50;26.30;;;;;;5010670;28;20849;-77
2022/02/01 01:54:28;;;;;;;0.10;0.00;;;9.50;26.30;;;;;;5008554;28;20464;-78
2022/02/01 01:56:56;;;;;;;0.22;0.00;;;9.50;26.40;;;;;;5032363;28;20976;-76
2022/02/01 01:59:26;;;;;;;0.10;0.00;;;9.50;26.50;;;;;;5009573;28;20401;-77
2022/02/01 02:01:53;;;;;;;0.95;0.00;;;9.40;26.50;;;;;;5002523;28;20416;-79
2022/02/01 02:04:20;;;;;;;0.70;0.00;;;9.50;26.50;;;;;;5007350;28;20428;-75
2022/02/01 02:06:48;;;;;;;0.50;0.00;;;9.50;26.20;;;;;;4995208;28;20427;-80
2022/02/01 02:09:15;;;;;;;0.20;0.00;;;9.60;26.20;;;;;;5001684;28;20462;-76
2022/02/01 02:12:30;;;;;;;0.70;0.03;;;9.60;26.00;;;;;;5007086;28;20908;-75
2022/02/01 02:14:43;;;;;;;0.40;0.00;;;9.50;26.10;;;;;;4987066;28;20996;-79
2022/02/01 02:17:10;;;;;;;0.70;0.00;;;9.50;26.00;;;;;;5027660;28;20410;-77
2022/02/01 02:19:37;;;;;;;0.20;0.00;;;9.50;26.20;;;;;;4994980;28;20403;-78
2022/02/01 02:22:06;;;;;;;0.17;0.00;;;9.50;26.20;;;;;;5009988;28;20965;-78
2022/02/01 02:24:38;;;;;;;0.00;0.00;;;9.60;25.70;;;;;;5034074;28;20856;-80
2022/02/01 02:27:06;;;;;;;5.82;0.52;;;9.60;25.70;;;;;;5035027;28;20408;-78
2022/02/01 02:29:33;;;;;;;1.27;0.08;;;9.60;25.70;;;;;;5033690;28;20404;-77
2022/02/01 02:32:02;;;;;;;0.83;0.00;;;9.60;25.20;;;;;;5044125;28;20402;-76
2022/02/01 02:34:29;;;;;;;1.50;0.10;;;9.80;25.30;;;;;;5043098;28;20420;-76
2022/02/01 02:37:13;;;;;;;0.50;0.00;;;9.80;25.40;;;;;;5029791;28;20501;-77
2022/02/01 02:40:04;;;;;;;0.30;0.00;;;9.70;25.60;;;;;;5058756;28;20404;-77
2022/02/01 02:45:04;;;;;;;0.15;0.03;;;9.70;25.50;;;;;;5025388;28;20433;-80
2022/02/01 02:45:20;;;;;;;0.70;0.17;;;9.70;25.60;;;;;;5038730;28;20444;-76
2022/02/01 02:47:47;;;;;;;0.00;0.00;;;9.70;25.30;;;;;;5062280;28;20431;-79
2022/02/01 02:50:14;;;;;;;0.85;0.00;;;9.70;25.60;;;;;;5020414;28;20956;-79
2022/02/01 02:52:41;;;;;;;0.70;0.10;;;9.70;25.60;;;;;;5032186;28;20398;-78
2022/02/01 02:55:08;;;;;;;0.00;0.00;;;9.60;25.50;;;;;;5027620;28;20418;-75
2022/02/01 02:57:35;;;;;;;0.30;0.00;;;9.70;25.50;;;;;;5009356;28;20422;-77
2022/02/01 03:00:03;;;;;;;0.20;0.00;;;9.60;25.70;;;;;;5022561;28;20443;-77
2022/02/01 03:02:33;;;;;;;0.40;0.00;;;9.50;25.60;;;;;;5031407;28;20511;-80
2022/02/01 03:05:00;;;;;;;0.50;0.00;;;9.60;25.70;;;;;;5026281;28;20419;-77
2022/02/01 03:07:27;;;;;;;1.27;0.00;;;9.60;25.40;;;;;;5050984;28;20416;-79
2022/02/01 03:09:54;;;;;;;0.20;0.00;;;9.70;25.20;;;;;;5036268;28;20892;-77
2022/02/01 03:12:35;;;;;;;0.00;0.00;;;9.70;25.50;;;;;;5022734;28;20466;-80
2022/02/01 03:15:33;;;;;;;0.50;0.00;;;9.60;25.70;;;;;;5051857;28;20924;-79
2022/02/01 03:20:41;;;;;;;0.40;0.00;;;9.70;25.40;;;;;;5043552;28;20416;-76
2022/02/01 03:23:08;;;;;;;0.20;0.00;;;9.70;25.20;;;;;;5047200;28;20409;-77
2022/02/01 03:25:35;;;;;;;0.05;0.00;;;9.70;26.20;;;;;;5031640;28;20420;-78
2022/02/01 03:28:02;;;;;;;0.00;0.00;;;9.70;25.40;;;;;;5030204;28;20439;-79
2022/02/01 03:30:29;;;;;;;0.20;0.00;;;9.70;25.40;;;;;;5043860;28;20429;-79
2022/02/01 03:32:56;;;;;;;1.80;0.00;;;9.60;25.10;;;;;;5012215;28;20416;-78
2022/02/01 03:35:23;;;;;;;0.30;0.00;;;9.60;25.30;;;;;;5029300;28;20418;-76
2022/02/01 03:37:50;;;;;;;0.10;0.00;;;9.60;25.30;;;;;;5030175;28;20422;-76
2022/02/01 03:40:20;;;;;;;0.13;0.00;;;9.60;25.20;;;;;;5034516;28;20493;-77
2022/02/01 03:42:46;;;;;;;0.10;0.00;;;9.60;25.10;;;;;;5024665;28;20467;-79
2022/02/01 03:45:13;;;;;;;0.03;0.00;;;9.70;24.90;;;;;;5040519;28;20467;-75
2022/02/01 03:47:40;;;;;;;0.00;0.00;;;9.70;24.90;;;;;;5035390;28;20425;-77
2022/02/01 03:50:07;;;;;;;0.15;0.00;;;9.70;25.00;;;;;;5021106;28;20902;-77
2022/02/01 03:52:35;;;;;;;0.20;0.00;;;9.60;25.10;;;;;;5016481;28;20414;-79
2022/02/01 03:55:03;;;;;;;0.60;0.00;;;9.70;25.00;;;;;;5030672;28;20410;-78
2022/02/01 03:57:30;;;;;;;0.00;0.00;;;9.70;25.20;;;;;;5003421;28;20423;-80
2022/02/01 03:59:58;;;;;;;0.00;0.00;;;9.60;25.10;;;;;;5037895;28;20401;-79
2022/02/01 04:02:25;;;;;;;1.20;0.00;;;9.60;25.20;;;;;;5036719;28;20416;-79
2022/02/01 04:04:53;;;;;;;0.03;0.00;;;9.60;25.20;;;;;;5032565;28;20417;-77
2022/02/01 04:07:21;;;;;;;0.20;0.00;;;9.50;26.20;;;;;;5033146;28;20502;-79
2022/02/01 04:09:50;;;;;;;0.20;0.00;;;9.50;25.40;;;;;;5057753;28;20933;-79
2022/02/01 04:12:17;;;;;;;0.73;0.00;;;9.40;25.40;;;;;;5034401;28;20482;-79
2022/02/01 04:14:46;;;;;;;0.32;0.00;;;9.40;25.40;;;;;;5032622;28;20408;-79
2022/02/01 04:17:13;;;;;;;0.03;0.00;;;9.50;25.40;;;;;;5027701;28;20418;-76
2022/02/01 04:19:42;;;;;;;0.50;0.00;;;9.50;25.10;;;;;;5026704;28;20421;-79
2022/02/01 04:22:11;;;;;;;0.70;0.10;;;9.60;25.00;;;;;;5023088;28;20447;-76
2022/02/01 04:24:41;;;;;;;0.70;0.00;;;9.50;25.30;;;;;;5052644;28;20450;-79
2022/02/01 04:27:15;;;;;;;1.00;0.00;;;9.50;25.30;;;;;;5032466;28;20408;-76
2022/02/01 04:29:47;;;;;;;0.13;0.00;;;9.50;25.20;;;;;;5046519;28;20421;-78
2022/02/01 04:32:14;;;;;;;0.40;0.00;;;9.40;25.70;;;;;;5031531;28;20415;-79
2022/02/01 04:34:42;;;;;;;0.30;0.00;;;9.40;25.50;;;;;;5030108;28;20416;-79
2022/02/01 04:37:10;;;;;;;0.95;0.10;;;9.30;25.40;;;;;;5030429;28;20406;-76
2022/02/01 04:39:37;;;;;;;0.90;0.10;;;9.30;25.70;;;;;;5025788;28;20408;-79
2022/02/01 04:42:04;;;;;;;0.23;0.10;;;9.10;25.80;;;;;;5045407;28;20416;-76
2022/02/01 04:44:31;;;;;;;0.73;0.13;;;9.00;26.40;;;;;;5042990;28;20474;-77
2022/02/01 04:46:58;;;;;;;0.90;0.30;;;8.70;26.60;;;;;;5028257;28;20398;-76
2022/02/01 04:49:25;;;;;;;0.90;0.20;;;8.40;27.10;;;;;;5015935;28;20424;-77
2022/02/01 04:51:52;;;;;;;0.75;0.20;;;8.10;27.70;;;;;;5033543;28;20466;-77
2022/02/01 04:54:19;;;;;;;0.50;0.20;;;7.90;28.10;;;;;;5018524;28;20851;-76
2022/02/01 04:56:46;;;;;;;0.45;0.30;;;7.70;28.50;;;;;;5030320;28;20415;-77
2022/02/01 04:59:13;;;;;;;0.82;0.32;;;7.60;29.10;;;;;;5031376;28;20415;-76
2022/02/01 05:01:40;;;;;;;2.95;1.50;;;7.50;29.50;;;;;;5024788;28;20421;-76
2022/02/01 05:04:08;;;;;;;30.85;17.77;;;7.40;29.40;;;;;;5031608;28;20903;-74
2022/02/01 05:06:36;;;;;;;15.95;9.85;;;7.30;29.50;;;;;;5045472;28;20474;-77
2022/02/01 05:09:05;;;;;;;12.38;7.88;;;7.20;30.20;;;;;;5045218;28;20460;-76
2022/02/01 05:11:32;;;;;;;11.43;7.13;;;7.10;31.00;;;;;;5023756;28;20412;-78
2022/02/01 05:14:05;;;;;;;22.05;13.40;;;7.00;31.50;;;;;;5018512;28;20874;-76
2022/02/01 05:16:56;;;;;;;53.78;32.35;;;7.00;31.70;;;;;;5030365;28;20908;-77
2022/02/01 05:19:53;;;;;;;19.52;11.68;;;7.00;32.10;;;;;;5043908;28;20464;-79
2022/02/01 05:22:16;;;;;;;3.20;1.80;;;6.90;32.40;;;;;;5022166;28;20916;-75
2022/02/01 05:24:46;;;;;;;2.28;1.10;;;6.70;32.80;;;;;;5035454;28;20964;-77
2022/02/01 05:27:14;;;;;;;1.75;0.80;;;6.60;33.10;;;;;;5047003;28;20470;-76
2022/02/01 05:29:42;;;;;;;0.90;0.50;;;6.40;34.40;;;;;;5042649;28;20412;-76
2022/02/01 05:32:31;;;;;;;0.85;0.55;;;6.10;34.20;;;;;;5040370;28;20413;-75
2022/02/01 05:34:57;;;;;;;1.40;0.40;;;5.90;34.80;;;;;;5049570;28;20424;-78
2022/02/01 05:37:24;;;;;;;0.93;0.50;;;5.60;35.30;;;;;;5045680;28;21295;-77
2022/02/01 05:39:51;;;;;;;1.15;0.50;;;5.40;36.10;;;;;;5028696;28;20898;-77
2022/02/01 05:42:25;;;;;;;1.30;0.50;;;5.20;36.10;;;;;;4993893;28;20804;-79
2022/02/01 05:44:52;;;;;;;1.63;0.50;;;5.20;36.60;;;;;;5035220;28;21094;-77
2022/02/01 05:47:19;;;;;;;1.35;0.45;;;4.90;37.30;;;;;;5027621;28;20418;-78
2022/02/01 05:49:46;;;;;;;0.93;0.43;;;4.80;36.80;;;;;;5043809;28;20442;-78
2022/02/01 05:52:13;;;;;;;1.55;0.60;;;4.80;36.70;;;;;;5030078;28;20820;-77
2022/02/01 05:54:40;;;;;;;1.77;0.50;;;4.80;36.20;;;;;;5028597;28;20823;-77
2022/02/01 05:57:09;;;;;;;1.50;0.70;;;4.90;36.70;;;;;;5033088;28;20903;-76
2022/02/01 05:59:37;;;;;;;1.58;0.60;;;4.90;36.90;;;;;;5031414;28;20957;-77
2022/02/01 06:02:05;;;;;;;2.40;1.00;;;4.90;37.20;;;;;;5031468;28;20408;-76
2022/02/01 06:04:33;;;;;;;2.60;1.20;;;4.90;37.40;;;;;;5027582;28;20980;-76
2022/02/01 06:07:00;;;;;;;2.15;0.80;;;4.80;37.70;;;;;;5022573;28;20978;-76
2022/02/01 06:09:28;;;;;;;2.00;0.63;;;4.70;37.70;;;;;;5030561;28;20914;-77
2022/02/01 06:11:55;;;;;;;1.40;0.70;;;4.50;38.20;;;;;;5034950;28;20825;-76
2022/02/01 06:14:22;;;;;;;2.22;0.73;;;4.40;38.80;;;;;;5050111;28;20420;-76
2022/02/01 06:16:49;;;;;;;1.50;0.80;;;4.30;39.10;;;;;;5034720;28;20408;-76
2022/02/01 06:19:16;;;;;;;1.70;0.77;;;4.20;39.10;;;;;;5034564;28;20412;-78
2022/02/01 06:21:43;;;;;;;2.47;1.35;;;4.20;39.20;;;;;;5039077;28;20422;-78
2022/02/01 06:24:11;;;;;;;2.85;2.17;;;4.10;40.60;;;;;;5017159;28;20418;-76
2022/02/01 06:26:37;;;;;;;4.93;3.25;;;4.10;40.30;;;;;;5031770;28;20843;-76
2022/02/01 06:29:04;;;;;;;2.20;1.40;;;4.10;40.40;;;;;;5051429;28;20412;-77
2022/02/01 06:31:31;;;;;;;3.70;0.95;;;3.80;41.10;;;;;;5052621;28;20416;-76
2022/02/01 06:33:58;;;;;;;3.90;1.50;;;3.60;41.80;;;;;;5037824;28;20476;-77
2022/02/01 06:36:25;;;;;;;3.63;1.55;;;3.50;42.40;;;;;;5031199;28;20443;-77
2022/02/01 06:38:52;;;;;;;3.75;2.75;;;3.50;43.00;;;;;;5044575;28;20900;-77
2022/02/01 06:41:19;;;;;;;3.38;2.22;;;3.40;41.80;;;;;;5034198;28;20424;-77
2022/02/01 06:43:47;;;;;;;4.28;3.17;;;3.40;41.70;;;;;;5051008;28;20420;-78
2022/02/01 06:46:14;;;;;;;5.28;3.25;;;3.40;42.00;;;;;;5025729;28;20448;-77
2022/02/01 06:48:41;;;;;;;7.10;4.18;;;3.40;42.10;;;;;;5032139;28;20436;-78
2022/02/01 06:51:09;;;;;;;7.77;4.53;;;3.40;42.50;;;;;;5022859;28;20502;-76
2022/02/01 06:53:43;;;;;;;5.43;3.15;;;3.40;43.40;;;;;;5022085;28;20426;-77
2022/02/01 06:56:18;;;;;;;4.13;2.85;;;3.20;42.70;;;;;;5052693;28;20908;-77
2022/02/01 06:58:46;;;;;;;7.50;3.55;;;3.20;43.40;;;;;;5034398;28;20877;-77
2022/02/01 07:01:13;;;;;;;5.67;4.00;;;3.10;44.00;;;;;;5024456;28;20410;-77
2022/02/01 07:03:40;;;;;;;6.80;4.23;;;3.10;43.80;;;;;;5047427;28;20904;-77
2022/02/01 07:06:12;;;;;;;7.38;4.45;;;3.00;43.70;;;;;;5050925;28;20478;-77
2022/02/01 07:08:44;;;;;;;8.85;4.15;;;3.00;43.70;;;;;;5052915;28;20410;-77
2022/02/01 07:11:15;;;;;;;4.40;2.92;;;2.90;44.40;;;;;;5040806;28;20420;-77
2022/02/01 07:13:42;;;;;;;4.55;2.70;;;2.60;45.20;;;;;;5051688;28;20983;-76
2022/02/01 07:16:09;;;;;;;18.20;11.48;;;2.50;45.30;;;;;;5018710;28;20450;-77
2022/02/01 07:18:36;;;;;;;28.80;19.27;;;2.50;45.60;;;;;;5033939;28;20487;-76
2022/02/01 07:21:03;;;;;;;25.03;15.57;;;2.40;46.00;;;;;;5035069;28;20412;-77
2022/02/01 07:23:32;;;;;;;21.90;14.82;;;2.50;46.50;;;;;;5042807;28;20496;-77
2022/02/01 07:26:03;;;;;;;17.73;12.77;;;2.50;46.30;;;;;;5050313;28;20424;-78
2022/02/01 07:28:40;;;;;;;17.63;12.30;;;2.40;46.50;;;;;;5013145;28;20898;-78
2022/02/01 07:31:09;;;;;;;18.20;12.80;;;2.40;47.30;;;;;;5044387;28;20408;-77
2022/02/01 07:33:37;;;;;;;21.15;12.55;;;2.40;47.30;;;;;;5057180;28;21008;-77
2022/02/01 07:36:05;;;;;;;17.15;11.43;;;2.40;47.30;;;;;;5031475;28;20905;-77
2022/02/01 07:38:33;;;;;;;18.10;10.30;;;2.40;47.40;;;;;;5050577;28;20940;-78
2022/02/01 07:41:00;;;;;;;13.80;7.05;;;2.50;47.10;;;;;;5033686;28;20950;-77
2022/02/01 07:43:30;;;;;;;13.43;8.00;;;2.60;47.00;;;;;;5042624;28;20412;-78
2022/02/01 07:46:04;;;;;;;15.43;9.25;;;2.70;46.90;;;;;;5046664;28;20448;-77
2022/02/01 07:48:31;;;;;;;16.77;9.65;;;2.70;47.00;;;;;;5050071;28;20425;-77
2022/02/01 07:50:58;;;;;;;15.57;9.57;;;2.90;46.70;;;;;;5050820;28;20404;-77
2022/02/01 07:53:25;;;;;;;27.95;16.42;;;3.20;46.10;;;;;;5049905;28;20903;-77
2022/02/01 07:55:52;;;;;;;22.60;13.18;;;3.40;48.30;;;;;;5048470;28;20459;-78
2022/02/01 07:58:19;;;;;;;22.55;13.55;;;3.60;48.60;;;;;;5032955;28;20413;-77
2022/02/01 08:00:46;;;;;;;23.00;11.90;;;3.90;48.10;;;;;;5046361;28;21054;-77
2022/02/01 08:03:13;;;;;;;19.48;9.18;;;4.20;47.40;;;;;;5023644;28;20490;-78
2022/02/01 08:05:40;;;;;;;17.52;9.10;;;4.40;46.80;;;;;;5032042;28;20490;-79
2022/02/01 08:08:07;;;;;;;16.50;9.65;;;4.60;46.50;;;;;;5024306;28;20410;-77
2022/02/01 08:10:49;;;;;;;15.07;8.85;;;4.90;46.40;;;;;;5050351;28;20876;-78
2022/02/01 08:21:15;;;;;;;24.27;9.25;;;5.80;44.90;;;;;;5042901;28;20935;-78
2022/02/01 08:23:42;;;;;;;18.50;7.75;;;5.80;44.10;;;;;;5026510;28;20402;-77
2022/02/01 08:26:09;;;;;;;11.82;6.75;;;6.00;44.10;;;;;;5047851;28;20447;-78
2022/02/01 08:28:37;;;;;;;13.93;7.60;;;6.20;43.60;;;;;;5016272;28;20474;-77
2022/02/01 08:31:04;;;;;;;18.90;9.18;;;6.40;42.80;;;;;;5033216;28;20408;-76
2022/02/01 08:33:31;;;;;;;13.52;8.60;;;6.50;43.00;;;;;;5056262;28;20458;-76
2022/02/01 08:35:58;;;;;;;18.17;12.20;;;6.70;42.60;;;;;;5024129;28;20409;-76
2022/02/01 08:38:25;;;;;;;22.23;9.98;;;7.00;41.60;;;;;;5029706;28;20468;-77
2022/02/01 08:40:52;;;;;;;14.63;8.70;;;7.10;41.30;;;;;;5013370;28;20410;-78
2022/02/01 08:43:19;;;;;;;19.13;8.80;;;7.20;41.60;;;;;;5043444;28;20424;-77
2022/02/01 08:45:48;;;;;;;15.70;9.27;;;7.30;40.10;;;;;;5025372;28;20975;-77
2022/02/01 08:48:16;;;;;;;13.50;8.57;;;7.50;40.30;;;;;;5016564;28;20420;-79
2022/02/01 08:50:43;;;;;;;16.92;8.07;;;7.60;39.60;;;;;;4998906;28;20406;-78
2022/02/01 08:53:19;;;;;;;16.33;8.00;;;7.80;39.50;;;;;;5020054;28;20420;-78
2022/02/01 08:58:24;;;;;;;15.83;8.57;;;8.10;38.80;;;;;;5029849;28;20409;-77
2022/02/01 09:00:53;;;;;;;13.43;9.77;;;8.40;38.90;;;;;;5007213;28;20540;-77
2022/02/01 09:03:21;;;;;;;19.83;13.90;;;8.60;38.40;;;;;;4999893;28;20915;-77
2022/02/01 09:05:49;;;;;;;9.65;6.05;;;8.80;38.50;;;;;;4997335;28;20462;-77
2022/02/01 09:08:17;;;;;;;6.97;4.20;;;9.00;37.80;;;;;;5012525;28;20460;-77
2022/02/01 09:10:44;;;;;;;10.60;3.47;;;9.00;38.10;;;;;;4998911;28;20487;-78
2022/02/01 09:13:11;;;;;;;6.35;3.60;;;9.10;37.90;;;;;;5025695;28;20473;-78
2022/02/01 09:15:38;;;;;;;6.13;3.50;;;9.20;37.40;;;;;;5032692;28;20404;-78
2022/02/01 09:18:06;;;;;;;15.10;9.20;;;9.40;37.30;;;;;;5031027;28;20470;-77
2022/02/01 09:20:33;;;;;;;11.48;6.60;;;9.60;35.70;;;;;;4991976;28;20416;-77
2022/02/01 09:23:01;;;;;;;3.38;1.90;;;9.80;33.40;;;;;;5011871;28;20408;-78
2022/02/01 09:25:28;;;;;;;2.08;0.85;;;9.90;32.60;;;;;;5016377;28;20414;-78
2022/02/01 09:27:55;;;;;;;1.75;0.98;;;10.20;30.70;;;;;;5017378;28;20824;-79
2022/02/01 09:30:23;;;;;;;1.60;0.90;;;10.20;29.30;;;;;;5009131;28;20415;-79
2022/02/01 09:32:51;;;;;;;1.00;0.40;;;10.40;29.90;;;;;;5020936;28;20471;-78
2022/02/01 09:35:18;;;;;;;2.08;0.60;;;10.50;29.20;;;;;;5014666;28;20420;-78
2022/02/01 09:37:46;;;;;;;2.28;0.80;;;10.60;29.20;;;;;;5001482;28;20468;-78
2022/02/01 09:40:33;;;;;;;1.20;0.60;;;10.80;29.00;;;;;;5033710;28;20432;-78
2022/02/01 09:43:00;;;;;;;1.80;0.60;;;10.90;28.00;;;;;;5025848;28;20417;-78
2022/02/01 09:45:29;;;;;;;1.33;0.40;;;11.00;28.40;;;;;;5027301;28;20414;-78
2022/02/01 09:48:05;;;;;;;10.37;4.83;;;11.00;28.20;;;;;;5033710;28;20400;-80
2022/02/01 09:50:32;;;;;;;2.90;1.40;;;11.10;27.90;;;;;;5036784;28;20424;-77
2022/02/01 09:52:59;;;;;;;8.57;4.38;;;11.20;28.50;;;;;;5035614;28;20408;-75
2022/02/01 09:55:27;;;;;;;24.50;14.23;;;11.30;28.10;;;;;;5038611;28;20412;-78
2022/02/01 09:57:56;;;;;;;10.53;7.17;;;11.20;27.40;;;;;;5031458;28;21002;-77
2022/02/01 10:00:35;;;;;;;7.07;4.75;;;11.30;27.70;;;;;;5032571;28;20470;-77
2022/02/01 10:03:04;;;;;;;1.00;0.90;;;11.40;28.10;;;;;;5055219;28;20402;-77
2022/02/01 10:05:35;;;;;;;1.60;0.60;;;11.40;27.30;;;;;;5040199;28;20412;-77
2022/02/01 10:08:03;;;;;;;0.80;0.40;;;11.30;28.00;;;;;;5031872;28;20476;-78
2022/02/01 10:10:32;;;;;;;2.20;0.50;;;11.40;28.00;;;;;;5044204;28;20896;-78
2022/02/01 10:12:59;;;;;;;1.60;0.50;;;11.50;27.30;;;;;;5031296;28;20453;-78
2022/02/01 10:15:28;;;;;;;0.80;0.40;;;11.50;27.40;;;;;;5043291;28;20474;-76
2022/02/01 10:17:58;;;;;;;1.25;0.20;;;11.60;27.20;;;;;;5034238;28;20412;-77
2022/02/01 10:20:36;;;;;;;1.27;0.40;;;11.50;26.10;;;;;;5032777;28;20475;-77
2022/02/01 10:23:26;;;;;;;0.70;0.40;;;11.50;26.80;;;;;;5046722;28;20393;-77
2022/02/01 10:26:01;;;;;;;1.25;0.50;;;11.40;27.00;;;;;;5040929;28;20408;-77
2022/02/01 10:28:40;;;;;;;1.60;0.70;;;11.50;27.10;;;;;;5033288;28;20497;-77
2022/02/01 10:31:25;;;;;;;0.68;0.52;;;11.50;26.80;;;;;;5034690;28;20390;-77
2022/02/01 10:34:00;;;;;;;1.80;0.45;;;11.50;26.50;;;;;;5016226;28;20410;-78
2022/02/01 10:36:36;;;;;;;1.45;0.40;;;11.60;27.00;;;;;;5026335;28;20415;-77
2022/02/01 10:39:15;;;;;;;1.20;0.60;;;11.80;27.20;;;;;;5051376;28;20405;-77
2022/02/01 10:41:52;;;;;;;1.73;0.50;;;11.90;27.30;;;;;;5020179;28;20418;-77
2022/02/01 10:44:20;;;;;;;1.00;0.50;;;11.90;26.70;;;;;;5031564;28;20458;-77
2022/02/01 10:46:52;;;;;;;1.00;0.50;;;11.90;27.00;;;;;;5023095;28;20456;-77
2022/02/01 10:49:33;;;;;;;1.20;0.50;;;12.10;27.40;;;;;;5032542;28;20950;-77
2022/02/01 10:52:06;;;;;;;1.02;0.52;;;12.10;26.10;;;;;;5035352;28;20413;-77
2022/02/01 10:54:44;;;;;;;1.60;0.40;;;12.10;26.50;;;;;;5036890;28;20409;-77
2022/02/01 10:57:13;;;;;;;1.60;0.40;;;12.20;26.70;;;;;;5032821;28;20425;-78
2022/02/01 10:59:41;;;;;;;0.80;0.40;;;12.30;26.80;;;;;;5043982;28;20462;-77
2022/02/01 11:02:11;;;;;;;1.13;0.50;;;12.40;27.10;;;;;;5034012;28;20419;-77
2022/02/01 11:04:38;;;;;;;1.73;0.53;;;12.50;27.00;;;;;;5025484;28;20426;-77
2022/02/01 11:07:06;;;;;;;8.80;6.88;;;12.50;26.40;;;;;;5031424;28;20910;-76
2022/02/01 11:09:34;;;;;;;0.93;0.50;;;12.50;26.90;;;;;;5030732;28;20477;-77
2022/02/01 11:12:10;;;;;;;1.33;0.50;;;12.50;26.50;;;;;;5015355;28;20406;-77
2022/02/01 11:14:50;;;;;;;1.45;1.35;;;12.50;26.70;;;;;;5015233;28;20688;-77
2022/02/01 11:17:20;;;;;;;1.85;0.60;;;12.50;26.40;;;;;;5031214;28;20449;-79
2022/02/01 11:19:51;;;;;;;1.95;0.80;;;12.40;26.10;;;;;;5034700;28;20404;-76
2022/02/01 11:22:38;;;;;;;0.93;0.70;;;12.30;26.60;;;;;;5015838;28;20421;-77
2022/02/01 11:25:21;;;;;;;2.35;1.48;;;12.30;26.10;;;;;;5032559;28;20418;-76
2022/02/01 11:28:08;;;;;;;1.45;0.85;;;12.30;26.10;;;;;;5013301;28;20406;-77
2022/02/01 11:30:41;;;;;;;1.85;0.90;;;12.40;26.40;;;;;;5022095;28;20423;-78
2022/02/01 11:33:10;;;;;;;3.28;1.80;;;12.40;25.80;;;;;;5027136;28;20418;-78
2022/02/01 11:35:39;;;;;;;1.23;0.93;;;12.50;26.90;;;;;;5032645;28;20437;-77
2022/02/01 11:38:16;;;;;;;2.20;0.80;;;12.60;26.30;;;;;;5031105;28;20444;-79
2022/02/01 11:40:49;;;;;;;3.22;1.20;;;12.70;26.30;;;;;;5031901;28;20421;-76
2022/02/01 11:43:36;;;;;;;4.30;2.72;;;12.80;26.50;;;;;;5047690;28;20431;-78
2022/02/01 11:46:09;;;;;;;1.80;1.40;;;13.10;26.70;;;;;;5021917;28;20411;-77
2022/02/01 11:48:40;;;;;;;2.20;0.90;;;13.30;26.20;;;;;;4996005;28;20445;-77
2022/02/01 11:51:12;;;;;;;6.45;3.28;;;13.40;26.50;;;;;;5029997;28;20817;-79
2022/02/01 11:53:44;;;;;;;2.00;0.98;;;13.30;26.10;;;;;;5010200;28;20827;-77
2022/02/01 11:56:13;;;;;;;1.55;0.90;;;13.10;26.00;;;;;;5028660;28;20421;-78
2022/02/01 11:58:46;;;;;;;2.25;1.50;;;13.10;26.50;;;;;;5024463;28;20515;-79
2022/02/01 12:01:34;;;;;;;5.30;2.90;;;13.20;26.40;;;;;;4986639;28;20426;-77
2022/02/01 12:04:11;;;;;;;6.40;3.80;;;13.20;26.20;;;;;;5037083;28;21258;-79
2022/02/01 12:06:48;;;;;;;5.28;2.13;;;13.20;26.10;;;;;;5013882;28;20425;-77
2022/02/01 12:09:22;;;;;;;2.85;1.70;;;13.10;26.50;;;;;;5032116;28;20410;-77
2022/02/01 12:11:56;;;;;;;2.97;1.55;;;13.20;26.30;;;;;;5013192;28;20418;-77
2022/02/01 12:14:24;;;;;;;1.60;1.00;;;13.20;26.30;;;;;;5014623;28;20413;-78
2022/02/01 12:16:53;;;;;;;3.72;2.88;;;13.30;26.30;;;;;;5004853;28;20416;-77
2022/02/01 12:19:37;;;;;;;22.50;14.98;;;13.20;25.70;;;;;;5042426;28;20758;-77
2022/02/01 12:22:39;;;;;;;8.60;6.30;;;13.20;26.10;;;;;;5029271;28;20553;-79
2022/02/01 12:25:09;;;;;;;2.50;1.40;;;13.40;26.30;;;;;;5044561;28;20426;-80
2022/02/01 12:27:42;;;;;;;2.00;1.00;;;13.60;25.70;;;;;;5026891;28;20424;-78
2022/02/01 12:30:10;;;;;;;2.47;0.80;;;13.70;26.00;;;;;;5030282;28;20421;-77
2022/02/01 12:32:52;;;;;;;2.13;1.02;;;13.90;25.70;;;;;;5027620;28;20957;-80
2022/02/01 12:35:33;;;;;;;2.10;0.77;;;13.80;25.00;;;;;;5029800;28;20421;-77
2022/02/01 12:38:19;;;;;;;2.78;0.80;;;13.60;24.60;;;;;;5048618;28;20422;-79
2022/02/01 12:40:58;;;;;;;0.93;0.60;;;13.70;25.10;;;;;;5004817;28;21000;-78
2022/02/01 12:43:29;;;;;;;2.17;0.60;;;13.70;24.50;;;;;;5007479;28;20414;-78
2022/02/01 12:46:16;;;;;;;0.98;0.57;;;13.80;24.10;;;;;;5003176;28;20413;-77
2022/02/01 12:48:48;;;;;;;0.93;0.60;;;13.80;24.40;;;;;;5028188;28;20476;-78
2022/02/01 12:51:16;;;;;;;1.00;0.50;;;13.80;24.50;;;;;;5062303;28;20766;-80
2022/02/01 12:53:47;;;;;;;0.70;0.30;;;14.00;24.80;;;;;;5032151;28;20420;-78
2022/02/01 12:56:23;;;;;;;1.20;0.65;;;14.10;23.50;;;;;;5019489;28;20756;-78
2022/02/01 12:58:57;;;;;;;1.73;1.20;;;14.30;24.10;;;;;;5013202;28;20394;-77
2022/02/01 13:01:32;;;;;;;2.03;0.50;;;14.40;23.90;;;;;;5012454;28;20422;-78
2022/02/01 13:04:00;;;;;;;1.87;0.70;;;14.50;23.40;;;;;;5026958;28;20398;-79
2022/02/01 13:06:28;;;;;;;1.20;0.50;;;14.30;22.90;;;;;;5020923;28;20406;-78
2022/02/01 13:14:41;;;;;;;1.75;0.70;;;14.60;23.30;;;;;;5017023;28;20790;-78
2022/02/01 13:17:33;;;;;;;1.08;0.60;;;14.60;22.60;;;;;;5050283;28;20978;-77
2022/02/01 13:20:05;;;;;;;0.95;0.60;;;14.70;23.40;;;;;;5020224;28;20792;-79
2022/02/01 13:22:59;;;;;;;1.10;0.40;;;14.60;22.60;;;;;;5017189;28;20413;-77
2022/02/01 13:25:35;;;;;;;1.30;0.50;;;14.40;22.70;;;;;;5033510;28;20437;-77
2022/02/01 13:28:10;;;;;;;0.80;0.60;;;14.30;22.60;;;;;;5017319;28;20425;-78
2022/02/01 13:30:40;;;;;;;1.50;0.35;;;14.40;23.50;;;;;;5044386;28;20922;-79
2022/02/01 13:33:11;;;;;;;0.80;0.40;;;14.40;22.50;;;;;;5023413;28;21719;-79
2022/02/01 13:35:48;;;;;;;1.23;0.40;;;14.50;22.50;;;;;;5053741;28;20495;-78
2022/02/01 13:38:17;;;;;;;1.33;0.47;;;14.50;22.80;;;;;;5030579;28;20440;-80
2022/02/01 13:40:44;;;;;;;0.65;0.40;;;14.60;22.90;;;;;;5025878;28;20929;-78
2022/02/01 13:43:17;;;;;;;1.38;0.50;;;14.80;22.70;;;;;;5033125;28;20829;-80
2022/02/01 13:45:45;;;;;;;1.38;0.50;;;14.70;22.00;;;;;;5025054;28;20415;-78
2022/02/01 13:48:19;;;;;;;1.55;0.40;;;14.70;21.50;;;;;;5023981;28;20419;-78
2022/02/01 13:50:47;;;;;;;1.73;0.40;;;14.70;22.10;;;;;;5013250;28;20416;-77
2022/02/01 13:53:16;;;;;;;1.70;0.50;;;14.80;22.00;;;;;;5023654;28;20412;-76
2022/02/01 13:55:44;;;;;;;1.40;0.50;;;14.90;22.20;;;;;;5009657;28;20454;-76
2022/02/01 13:58:19;;;;;;;0.73;0.40;;;14.90;22.50;;;;;;5011544;28;20417;-77
2022/02/01 14:00:49;;;;;;;1.92;0.60;;;15.00;22.30;;;;;;5000358;28;20458;-77
2022/02/01 14:06:03;;;;;;;15.68;9.93;;;15.10;22.60;;;;;;5022252;28;20776;-78
2022/02/01 14:26:46;;;;;;;2.05;1.73;;;14.50;22.70;;;;;;5029832;28;20410;-78
2022/02/01 14:34:41;;;;;;;1.48;0.70;;;14.60;22.80;;;;;;5022541;28;21261;-79
2022/02/01 14:37:56;;;;;;;1.15;0.50;;;14.50;22.40;;;;;;5021698;28;20429;-78
2022/02/01 14:43:17;;;;;;;2.80;0.50;;;14.20;22.40;;;;;;5045600;28;20420;-78
2022/02/01 14:45:36;;;;;;;1.85;0.60;;;14.20;22.70;;;;;;5047031;28;20404;-78
2022/02/01 14:48:04;;;;;;;6.65;3.75;;;14.20;23.20;;;;;;5040254;28;20414;-78
2022/02/01 14:50:31;;;;;;;2.90;1.53;;;14.20;22.90;;;;;;5035034;28;20427;-76
2022/02/01 14:52:58;;;;;;;1.77;0.70;;;14.10;23.00;;;;;;5030359;28;20775;-78